createdAt,value
2019-05-11T00:02:21.585Z,18.87
2019-05-11T00:04:50.628Z,18.20
2019-05-11T00:07:19.626Z,18.40
2019-05-11T00:09:57.625Z,18.50
2019-05-11T00:12:19.433Z,18.70
2019-05-11T00:14:48.489Z,17.50
2019-05-11T00:17:17.836Z,17.23
2019-05-11T00:19:46.807Z,17.13
2019-05-11T00:22:16.021Z,17.03
2019-05-11T00:24:45.425Z,16.63
2019-05-11T00:27:14.452Z,16.90
2019-05-11T00:29:43.634Z,16.73
2019-05-11T00:32:12.714Z,15.73
2019-05-11T00:34:41.747Z,15.63
2019-05-11T00:37:10.806Z,17.43
2019-05-11T00:39:39.816Z,16.83
2019-05-11T00:42:08.773Z,17.17
2019-05-11T00:44:37.771Z,17.33
2019-05-11T00:47:07.075Z,16.93
2019-05-11T00:49:36.285Z,18.90
2019-05-11T00:52:05.381Z,18.37
2019-05-11T00:54:34.887Z,19.37
2019-05-11T00:57:04.189Z,19.27
2019-05-11T00:59:33.287Z,20.30
2019-05-11T01:02:02.408Z,19.93
2019-05-11T01:04:31.342Z,20.40
2019-05-11T01:07:00.403Z,20.00
2019-05-11T01:09:29.539Z,19.93
2019-05-11T01:11:58.495Z,19.80
2019-05-11T01:14:27.657Z,19.93
2019-05-11T01:16:56.867Z,19.60
2019-05-11T01:19:26.222Z,18.63
2019-05-11T01:21:55.182Z,19.63
2019-05-11T01:24:24.254Z,18.23
2019-05-11T01:26:53.509Z,18.67
2019-05-11T01:29:22.650Z,18.57
2019-05-11T01:31:52.561Z,18.87
2019-05-11T01:34:21.657Z,19.10
2019-05-11T01:36:51.163Z,19.80
2019-05-11T01:39:20.485Z,20.50
2019-05-11T01:41:49.444Z,21.00
2019-05-11T01:44:18.530Z,21.73
2019-05-11T01:46:47.548Z,21.80
2019-05-11T01:49:16.496Z,20.43
2019-05-11T01:51:45.527Z,22.87
2019-05-11T01:54:14.635Z,22.67
2019-05-11T01:56:43.619Z,21.93
2019-05-11T01:59:12.834Z,19.17
2019-05-11T02:01:41.954Z,19.93
2019-05-11T02:04:11.164Z,19.87
2019-05-11T02:06:40.326Z,18.77
2019-05-11T02:09:09.367Z,19.47
2019-05-11T02:11:38.515Z,17.93
2019-05-11T02:14:07.476Z,17.00
2019-05-11T02:16:36.709Z,17.97
2019-05-11T02:19:06.014Z,17.90
2019-05-11T02:21:35.352Z,17.77
2019-05-11T02:24:04.812Z,18.27
2019-05-11T02:26:33.909Z,18.90
2019-05-11T02:29:03.023Z,19.30
2019-05-11T02:31:32.526Z,18.43
2019-05-11T02:34:01.533Z,18.60
2019-05-11T02:36:30.975Z,19.17
2019-05-11T02:38:59.975Z,18.83
2019-05-11T02:41:36.077Z,18.23
2019-05-11T02:43:59.848Z,19.27
2019-05-11T02:46:29.344Z,18.87
2019-05-11T02:48:58.324Z,18.10
2019-05-11T02:51:29.132Z,17.67
2019-05-11T02:53:59.524Z,19.00
2019-05-11T02:56:28.594Z,16.07
2019-05-11T02:58:57.558Z,17.27
2019-05-11T03:01:26.790Z,16.37
2019-05-11T03:03:55.767Z,15.97
2019-05-11T03:06:24.810Z,15.63
2019-05-11T03:08:53.886Z,15.63
2019-05-11T03:11:23.174Z,16.37
2019-05-11T03:13:52.267Z,15.20
2019-05-11T03:16:21.287Z,14.90
2019-05-11T03:18:50.460Z,15.50
2019-05-11T03:21:19.432Z,15.23
2019-05-11T03:23:48.798Z,14.77
2019-05-11T03:26:17.776Z,14.43
2019-05-11T03:28:46.770Z,14.57
2019-05-11T03:31:15.767Z,14.90
2019-05-11T03:33:44.873Z,14.33
2019-05-11T03:36:13.955Z,13.63
2019-05-11T03:38:43.231Z,13.63
2019-05-11T03:41:12.334Z,12.60
2019-05-11T03:43:41.262Z,12.67
2019-05-11T03:46:10.518Z,11.77
2019-05-11T03:48:39.652Z,12.00
2019-05-11T03:51:08.738Z,12.50
2019-05-11T03:53:38.013Z,10.97
2019-05-11T03:56:06.963Z,10.47
2019-05-11T03:58:36.004Z,10.47
2019-05-11T04:01:06.020Z,10.30
2019-05-11T04:03:35.217Z,10.30
2019-05-11T04:06:04.327Z,10.70
2019-05-11T04:08:33.424Z,10.23
2019-05-11T04:11:02.552Z,10.30
2019-05-11T04:13:31.815Z,9.73
2019-05-11T04:16:00.815Z,10.60
2019-05-11T04:18:29.768Z,9.53
2019-05-11T04:20:58.894Z,8.63
2019-05-11T04:23:27.906Z,9.50
2019-05-11T04:25:56.858Z,8.83
2019-05-11T04:28:25.915Z,8.10
2019-05-11T04:30:55.072Z,8.50
2019-05-11T04:33:24.290Z,8.73
2019-05-11T04:35:53.468Z,8.30
2019-05-11T04:38:22.612Z,8.03
2019-05-11T04:40:51.669Z,8.73
2019-05-11T04:43:20.645Z,8.63
2019-05-11T04:45:49.866Z,8.63
2019-05-11T04:48:18.954Z,8.03
2019-05-11T04:50:48.053Z,8.47
2019-05-11T04:53:17.077Z,8.60
2019-05-11T04:55:46.034Z,8.27
2019-05-11T04:58:15.335Z,7.80
2019-05-11T05:00:44.459Z,8.10
2019-05-11T05:03:13.533Z,7.50
2019-05-11T05:05:42.629Z,8.77
2019-05-11T05:08:11.628Z,7.87
2019-05-11T05:10:40.589Z,8.53
2019-05-11T05:13:10.853Z,8.20
2019-05-11T05:15:40.099Z,8.27
2019-05-11T05:18:09.170Z,9.07
2019-05-11T05:20:38.232Z,7.93
2019-05-11T05:23:07.534Z,7.83
2019-05-11T05:25:36.484Z,8.30
2019-05-11T05:28:05.712Z,7.80
2019-05-11T05:30:34.814Z,7.37
2019-05-11T05:33:03.910Z,7.30
2019-05-11T05:35:32.883Z,7.93
2019-05-11T05:38:02.328Z,7.57
2019-05-11T05:40:31.291Z,7.47
2019-05-11T05:43:00.225Z,7.20
2019-05-11T05:45:29.609Z,7.50
2019-05-11T05:47:58.564Z,6.57
2019-05-11T05:50:27.670Z,7.30
2019-05-11T05:52:56.650Z,7.13
2019-05-11T05:55:25.846Z,7.20
2019-05-11T05:57:54.798Z,7.40
2019-05-11T06:00:24.601Z,6.77
2019-05-11T06:02:53.558Z,7.30
2019-05-11T06:05:22.493Z,7.13
2019-05-11T06:07:51.488Z,7.13
2019-05-11T06:10:20.536Z,7.60
2019-05-11T06:12:49.654Z,7.10
2019-05-11T06:15:19.890Z,6.50
2019-05-11T06:17:48.884Z,6.80
2019-05-11T06:20:18.344Z,6.40
2019-05-11T06:22:47.473Z,6.67
2019-05-11T06:25:16.539Z,6.57
2019-05-11T06:27:45.665Z,7.40
2019-05-11T06:30:15.652Z,7.07
2019-05-11T06:32:44.885Z,6.63
2019-05-11T06:35:14.594Z,6.67
2019-05-11T06:37:43.586Z,7.07
2019-05-11T06:40:12.907Z,9.67
2019-05-11T06:42:41.998Z,6.93
2019-05-11T06:45:10.992Z,7.13
2019-05-11T06:47:40.073Z,7.53
2019-05-11T06:50:09.377Z,7.27
2019-05-11T06:52:38.473Z,7.00
2019-05-11T06:55:07.797Z,7.50
2019-05-11T06:57:36.744Z,7.03
2019-05-11T07:00:07.443Z,7.27
2019-05-11T07:02:36.473Z,7.47
2019-05-11T07:05:07.235Z,8.40
2019-05-11T07:07:47.219Z,7.67
2019-05-11T07:10:09.517Z,8.93
2019-05-11T07:12:38.539Z,8.20
2019-05-11T07:15:07.826Z,8.13
2019-05-11T07:17:36.956Z,8.10
2019-05-11T07:20:08.734Z,8.67
2019-05-11T07:22:37.839Z,8.30
2019-05-11T07:25:07.594Z,8.77
2019-05-11T07:27:36.641Z,9.40
2019-05-11T07:30:07.654Z,9.40
2019-05-11T07:32:38.102Z,9.00
2019-05-11T07:35:08.757Z,10.00
2019-05-11T07:37:38.520Z,9.63
2019-05-11T07:40:08.374Z,8.80
2019-05-11T07:42:38.091Z,9.00
2019-05-11T07:45:09.184Z,9.80
2019-05-11T07:47:38.244Z,9.53
2019-05-11T07:50:08.791Z,9.63
2019-05-11T07:52:38.010Z,10.43
2019-05-11T07:55:08.704Z,9.93
2019-05-11T07:57:38.983Z,10.00
2019-05-11T08:00:08.843Z,10.20
2019-05-11T08:02:38.668Z,10.83
2019-05-11T08:05:08.821Z,11.13
2019-05-11T08:07:38.117Z,10.73
2019-05-11T08:10:08.303Z,11.00
2019-05-11T08:12:39.137Z,9.83
2019-05-11T08:15:12.966Z,11.17
2019-05-11T08:17:39.508Z,11.10
2019-05-11T08:20:08.687Z,11.17
2019-05-11T08:22:37.927Z,12.20
2019-05-11T08:25:09.175Z,13.40
2019-05-11T08:27:38.458Z,13.83
2019-05-11T08:30:10.705Z,13.60
2019-05-11T08:32:39.665Z,14.13
2019-05-11T08:35:09.720Z,14.27
2019-05-11T08:37:39.090Z,14.23
2019-05-11T08:40:08.789Z,14.90
2019-05-11T08:42:38.004Z,15.77
2019-05-11T08:45:18.992Z,16.23
2019-05-11T08:47:38.073Z,16.50
2019-05-11T08:50:08.242Z,16.03
2019-05-11T08:52:38.683Z,16.23
2019-05-11T08:55:08.494Z,16.13
2019-05-11T08:57:38.843Z,15.27
2019-05-11T09:00:09.559Z,15.30
2019-05-11T09:02:38.519Z,15.03
2019-05-11T09:05:08.266Z,14.80
2019-05-11T09:07:38.418Z,14.23
2019-05-11T09:10:08.369Z,15.00
2019-05-11T09:12:38.280Z,14.20
2019-05-11T09:15:08.751Z,14.77
2019-05-11T09:17:38.279Z,13.93
2019-05-11T09:20:08.813Z,13.43
2019-05-11T09:22:38.214Z,13.70
2019-05-11T09:25:08.788Z,13.30
2019-05-11T09:27:38.052Z,9.43
2019-05-11T09:30:08.394Z,13.33
2019-05-11T09:32:38.439Z,12.73
2019-05-11T09:35:08.529Z,12.07
2019-05-11T09:37:38.207Z,12.30
2019-05-11T09:40:07.983Z,11.90
2019-05-11T09:42:38.872Z,9.77
2019-05-11T09:45:08.252Z,9.20
2019-05-11T09:47:38.704Z,8.63
2019-05-11T09:50:08.735Z,8.17
2019-05-11T09:52:38.428Z,8.17
2019-05-11T09:55:09.120Z,7.40
2019-05-11T09:57:38.355Z,6.73
2019-05-11T10:00:08.768Z,7.53
2019-05-11T10:02:38.715Z,7.03
2019-05-11T10:05:09.129Z,6.77
2019-05-11T10:07:38.352Z,6.93
2019-05-11T10:10:09.265Z,6.80
2019-05-11T10:12:41.727Z,6.30
2019-05-11T10:15:10.937Z,6.27
2019-05-11T10:17:39.879Z,6.60
2019-05-11T10:20:09.619Z,6.73
2019-05-11T10:22:38.715Z,7.00
2019-05-11T10:25:08.940Z,6.90
2019-05-11T10:27:38.793Z,6.00
2019-05-11T10:30:08.900Z,5.77
2019-05-11T10:32:38.538Z,6.60
2019-05-11T10:35:08.325Z,6.80
2019-05-11T10:37:38.974Z,7.67
2019-05-11T10:40:09.514Z,8.83
2019-05-11T10:42:38.917Z,8.23
2019-05-11T10:45:09.246Z,8.37
2019-05-11T10:47:38.819Z,8.83
2019-05-11T10:50:08.791Z,11.57
2019-05-11T10:52:38.113Z,14.67
2019-05-11T10:55:08.682Z,12.97
2019-05-11T10:57:38.697Z,9.10
2019-05-11T11:00:09.671Z,9.47
2019-05-11T11:02:39.479Z,8.03
2019-05-11T11:05:08.852Z,8.10
2019-05-11T11:07:38.540Z,7.73
2019-05-11T11:10:08.975Z,8.20
2019-05-11T11:12:38.588Z,7.97
2019-05-11T11:15:08.767Z,9.00
2019-05-11T11:17:38.378Z,8.47
2019-05-11T11:20:08.745Z,8.37
2019-05-11T11:22:43.624Z,8.20
2019-05-11T11:25:09.097Z,8.57
2019-05-11T11:27:38.284Z,8.47
2019-05-11T11:30:09.157Z,8.10
2019-05-11T11:32:38.747Z,8.73
2019-05-11T11:35:08.923Z,8.77
2019-05-11T11:37:38.799Z,8.30
2019-05-11T11:40:09.212Z,8.70
2019-05-11T11:42:38.210Z,8.30
2019-05-11T11:45:08.798Z,8.17
2019-05-11T11:47:38.402Z,9.40
2019-05-11T11:50:09.972Z,9.13
2019-05-11T11:52:39.188Z,8.57
2019-05-11T11:55:11.065Z,7.77
2019-05-11T11:57:40.052Z,8.20
2019-05-11T12:00:09.910Z,7.80
2019-05-11T12:02:39.378Z,8.87
2019-05-11T12:05:09.091Z,7.73
2019-05-11T12:07:38.746Z,9.07
2019-05-11T12:10:08.656Z,9.10
2019-05-11T12:12:38.706Z,8.10
2019-05-11T12:15:08.963Z,9.03
2019-05-11T12:17:39.198Z,9.10
2019-05-11T12:20:09.095Z,9.60
2019-05-11T12:22:38.706Z,10.23
2019-05-11T12:25:08.414Z,9.73
2019-05-11T12:27:38.427Z,10.77
2019-05-11T12:30:09.513Z,11.93
2019-05-11T12:32:43.069Z,12.17
2019-05-11T12:35:12.411Z,11.10
2019-05-11T12:37:41.410Z,11.83
2019-05-11T12:40:11.880Z,10.83
2019-05-11T12:42:40.974Z,12.47
2019-05-11T12:45:12.304Z,11.17
2019-05-11T12:47:41.387Z,10.70
2019-05-11T12:50:11.338Z,10.43
2019-05-11T12:52:40.440Z,11.37
2019-05-11T12:55:10.389Z,11.20
2019-05-11T12:57:39.408Z,12.40
2019-05-11T13:00:10.716Z,11.50
2019-05-11T13:02:39.760Z,11.67
2019-05-11T13:05:09.024Z,11.03
2019-05-11T13:07:39.270Z,10.77
2019-05-11T13:10:09.258Z,9.50
2019-05-11T13:13:05.810Z,11.20
2019-05-11T13:15:35.068Z,10.63
2019-05-11T13:18:04.367Z,10.20
2019-05-11T13:20:33.905Z,9.00
2019-05-11T13:23:02.889Z,9.63
2019-05-11T13:25:31.912Z,9.67
2019-05-11T13:28:00.908Z,9.47
2019-05-11T13:30:29.954Z,10.63
2019-05-11T13:32:59.146Z,9.80
2019-05-11T13:35:28.620Z,10.50
2019-05-11T13:37:58.453Z,9.50
2019-05-11T13:40:52.908Z,10.70
2019-05-11T13:43:21.998Z,9.93
2019-05-11T13:45:51.186Z,10.57
2019-05-11T13:48:20.138Z,11.40
2019-05-11T13:50:49.328Z,10.17
2019-05-11T13:53:18.579Z,11.57
2019-05-11T13:55:48.238Z,10.83
2019-05-11T13:58:19.853Z,10.77
2019-05-11T14:00:48.310Z,11.50
2019-05-11T14:03:18.409Z,10.20
2019-05-11T14:05:48.332Z,11.23
2019-05-11T14:08:18.617Z,10.50
2019-05-11T14:10:48.851Z,11.30
2019-05-11T14:13:18.307Z,10.37
2019-05-11T14:15:48.168Z,10.27
2019-05-11T14:18:18.242Z,9.97
2019-05-11T14:20:48.282Z,10.27
2019-05-11T14:23:18.386Z,9.70
2019-05-11T14:25:48.668Z,9.80
2019-05-11T14:28:18.085Z,10.33
2019-05-11T14:30:48.738Z,9.27
2019-05-11T14:33:18.163Z,9.80
2019-05-11T14:35:48.926Z,10.03
2019-05-11T14:38:18.799Z,9.00
2019-05-11T14:40:48.430Z,9.57
2019-05-11T14:43:18.839Z,8.17
2019-05-11T14:45:48.808Z,8.70
2019-05-11T14:48:26.286Z,9.50
2019-05-11T14:50:49.118Z,9.27
2019-05-11T14:53:18.429Z,9.00
2019-05-11T14:55:48.799Z,8.63
2019-05-11T14:58:19.691Z,8.27
2019-05-11T15:00:48.918Z,7.70
2019-05-11T15:03:18.323Z,9.00
2019-05-11T15:05:47.872Z,8.10
2019-05-11T15:08:18.084Z,5.37
2019-05-11T15:10:48.953Z,8.70
2019-05-11T15:13:18.555Z,8.37
2019-05-11T15:15:48.779Z,7.73
2019-05-11T15:18:17.973Z,8.00
2019-05-11T15:20:47.893Z,8.17
2019-05-11T15:23:17.995Z,7.53
2019-05-11T15:25:48.760Z,6.80
2019-05-11T15:28:18.254Z,7.00
2019-05-11T15:30:48.279Z,6.87
2019-05-11T15:33:18.318Z,7.50
2019-05-11T15:35:47.998Z,7.60
2019-05-11T15:38:17.909Z,7.43
2019-05-11T15:40:48.726Z,7.27
2019-05-11T15:43:18.118Z,6.50
2019-05-11T15:45:48.712Z,7.23
2019-05-11T15:48:18.858Z,7.27
2019-05-11T15:50:48.618Z,6.63
2019-05-11T15:53:18.002Z,7.47
2019-05-11T15:55:47.475Z,6.37
2019-05-11T15:58:19.064Z,6.10
2019-05-11T16:00:48.347Z,5.57
2019-05-11T16:03:18.626Z,6.77
2019-05-11T16:05:48.152Z,7.10
2019-05-11T16:08:18.968Z,6.80
2019-05-11T16:10:48.883Z,6.03
2019-05-11T16:13:18.309Z,7.07
2019-05-11T16:15:47.804Z,6.60
2019-05-11T16:18:18.944Z,7.57
2019-05-11T16:20:49.947Z,7.90
2019-05-11T16:23:20.319Z,6.87
2019-05-11T16:25:49.246Z,7.07
2019-05-11T16:28:19.250Z,7.33
2019-05-11T16:30:48.669Z,6.77
2019-05-11T16:33:18.662Z,6.67
2019-05-11T16:35:48.964Z,6.77
2019-05-11T16:38:19.047Z,6.87
2019-05-11T16:40:48.420Z,6.23
2019-05-11T16:43:19.320Z,7.80
2019-05-11T16:45:48.878Z,7.93
2019-05-11T16:48:18.667Z,7.23
2019-05-11T16:50:47.716Z,7.47
2019-05-11T16:53:18.313Z,7.60
2019-05-11T16:55:48.613Z,8.27
2019-05-11T16:58:19.757Z,7.97
2019-05-11T17:00:49.195Z,7.60
2019-05-11T17:03:18.468Z,7.60
2019-05-11T17:05:48.495Z,7.73
2019-05-11T17:08:18.751Z,7.13
2019-05-11T17:10:59.180Z,7.43
2019-05-11T17:13:28.378Z,6.03
2019-05-11T17:15:58.331Z,6.67
2019-05-11T17:18:28.568Z,5.97
2019-05-11T17:20:58.478Z,6.27
2019-05-11T17:23:30.540Z,6.33
2019-05-11T17:25:58.628Z,6.47
2019-05-11T17:28:28.255Z,6.37
2019-05-11T17:30:59.089Z,7.67
2019-05-11T17:33:28.219Z,6.57
2019-05-11T17:35:58.719Z,7.00
2019-05-11T17:38:28.277Z,6.57
2019-05-11T17:40:58.260Z,5.93
2019-05-11T17:43:28.135Z,6.80
2019-05-11T17:45:58.485Z,6.67
2019-05-11T17:48:28.158Z,7.20
2019-05-11T17:54:28.477Z,6.63
2019-05-11T17:56:57.885Z,7.73
2019-05-11T17:59:28.143Z,7.00
2019-05-11T18:01:58.088Z,6.83
2019-05-11T18:04:27.204Z,6.83
2019-05-11T18:06:58.657Z,7.13
2019-05-11T18:09:26.948Z,7.57
2019-05-11T18:11:58.114Z,6.83
2019-05-11T18:14:28.199Z,7.37
2019-05-11T18:16:58.962Z,7.93
2019-05-11T18:19:28.206Z,7.60
2019-05-11T18:21:57.757Z,7.90
2019-05-11T18:24:28.531Z,7.17
2019-05-11T18:26:59.177Z,7.50
2019-05-11T18:29:28.929Z,7.73
2019-05-11T18:31:58.438Z,8.27
2019-05-11T18:34:27.739Z,8.00
2019-05-11T18:36:57.839Z,8.30
2019-05-11T18:39:28.668Z,8.17
2019-05-11T18:41:58.725Z,7.83
2019-05-11T18:44:27.796Z,7.83
2019-05-11T18:46:59.155Z,7.13
2019-05-11T18:49:28.532Z,7.30
2019-05-11T18:51:58.632Z,6.80
2019-05-11T18:54:28.789Z,6.97
2019-05-11T18:56:58.886Z,6.60
2019-05-11T18:59:28.359Z,6.77
2019-05-11T19:01:58.627Z,6.90
2019-05-11T19:04:28.702Z,6.63
2019-05-11T19:07:11.894Z,6.93
2019-05-11T19:09:29.029Z,6.63
2019-05-11T19:11:58.822Z,6.93
2019-05-11T19:14:28.221Z,7.37
2019-05-11T19:16:57.227Z,7.90
2019-05-11T19:19:26.207Z,7.40
2019-05-11T19:21:55.304Z,7.77
2019-05-11T19:24:24.493Z,7.27
2019-05-11T19:26:53.689Z,7.90
2019-05-11T19:29:22.799Z,7.47
2019-05-11T19:31:52.309Z,7.97
2019-05-11T19:34:21.594Z,9.87
2019-05-11T19:36:50.803Z,8.90
2019-05-11T19:39:20.159Z,7.67
2019-05-11T19:41:49.500Z,7.97
2019-05-11T19:44:18.972Z,7.37
2019-05-11T19:46:47.956Z,7.70
2019-05-11T19:49:18.992Z,6.80
2019-05-11T19:51:48.683Z,6.93
2019-05-11T19:54:18.613Z,7.10
2019-05-11T19:56:48.375Z,6.27
2019-05-11T19:59:32.201Z,6.30
2019-05-11T20:02:01.337Z,4.90
2019-05-11T20:04:30.772Z,5.30
2019-05-11T20:06:59.754Z,5.23
2019-05-11T20:09:29.015Z,5.50
2019-05-11T20:11:58.351Z,5.10
2019-05-11T20:14:28.335Z,5.00
2019-05-11T20:16:59.440Z,4.97
2019-05-11T20:19:28.354Z,4.93
2019-05-11T20:21:57.834Z,4.13
2019-05-11T20:24:27.858Z,4.53
2019-05-11T20:26:56.985Z,4.17
2019-05-11T20:29:27.786Z,4.70
2019-05-11T20:31:57.848Z,4.20
2019-05-11T20:34:28.799Z,4.90
2019-05-11T20:36:58.689Z,4.07
2019-05-11T20:39:28.671Z,4.20
2019-05-11T20:41:58.223Z,5.20
2019-05-11T20:44:28.712Z,4.73
2019-05-11T20:46:58.140Z,4.67
2019-05-11T20:49:28.249Z,5.77
2019-05-11T20:51:58.000Z,4.70
2019-05-11T20:54:28.105Z,4.40
2019-05-11T20:56:58.530Z,4.20
2019-05-11T20:59:29.009Z,5.60
2019-05-11T21:01:58.842Z,4.93
2019-05-11T21:04:28.397Z,4.53
2019-05-11T21:06:58.101Z,3.97
2019-05-11T21:09:28.949Z,3.60
2019-05-11T21:11:59.048Z,3.90
2019-05-11T21:14:28.784Z,3.93
2019-05-11T21:16:58.918Z,3.50
2019-05-11T21:19:28.520Z,3.23
2019-05-11T21:21:59.037Z,3.20
2019-05-11T21:24:28.531Z,3.23
2019-05-11T21:26:58.465Z,3.43
2019-05-11T21:29:28.303Z,3.20
2019-05-11T21:31:58.988Z,3.23
2019-05-11T21:34:28.322Z,3.27
2019-05-11T21:36:57.694Z,3.00
2019-05-11T21:39:28.747Z,2.73
2019-05-11T21:41:58.298Z,3.10
2019-05-11T21:44:27.863Z,4.00
2019-05-11T21:46:57.559Z,3.17
2019-05-11T21:49:26.782Z,3.30
2019-05-11T21:52:03.891Z,2.70
2019-05-11T21:54:29.970Z,2.93
2019-05-11T21:56:57.897Z,3.00
2019-05-11T21:59:27.661Z,2.93
2019-05-11T22:01:56.950Z,3.27
2019-05-11T22:04:28.485Z,2.27
2019-05-11T22:06:58.760Z,2.50
2019-05-11T22:09:28.370Z,2.27
2019-05-11T22:11:57.449Z,2.50
2019-05-11T22:14:29.685Z,2.30
2019-05-11T22:17:00.193Z,2.40
2019-05-11T22:19:28.097Z,2.47
2019-05-11T22:21:58.292Z,2.60
2019-05-11T22:24:28.268Z,2.67
2019-05-11T22:27:00.224Z,2.60
2019-05-11T22:29:28.686Z,2.50
2019-05-11T22:31:58.251Z,2.30
2019-05-11T22:34:28.421Z,2.40
2019-05-11T22:36:58.256Z,4.63
2019-05-11T22:39:27.729Z,2.90
2019-05-11T22:41:58.850Z,2.70
2019-05-11T22:44:28.028Z,3.07
2019-05-11T22:46:58.215Z,2.70
2019-05-11T22:49:28.455Z,2.63
2019-05-11T22:51:59.739Z,2.80
2019-05-11T22:54:28.981Z,2.93
2019-05-11T22:56:58.642Z,2.47
2019-05-11T22:59:28.207Z,2.50
2019-05-11T23:01:57.399Z,2.87
2019-05-11T23:04:28.683Z,2.63
2019-05-11T23:06:58.448Z,2.50
2019-05-11T23:09:27.866Z,2.17
2019-05-11T23:12:00.751Z,2.87
2019-05-11T23:14:28.300Z,2.57
2019-05-11T23:16:58.643Z,2.30
2019-05-11T23:19:28.424Z,2.40
2019-05-11T23:21:58.712Z,3.17
2019-05-11T23:24:28.837Z,2.33
2019-05-11T23:26:58.479Z,2.30
2019-05-11T23:29:27.945Z,2.43
2019-05-11T23:31:58.389Z,2.07
2019-05-11T23:34:28.232Z,3.17
2019-05-11T23:36:59.123Z,2.30
2019-05-11T23:39:28.598Z,2.30
2019-05-11T23:41:58.626Z,2.60
2019-05-11T23:44:27.988Z,3.20
2019-05-11T23:46:57.288Z,2.57
2019-05-11T23:49:26.298Z,2.80
2019-05-11T23:51:55.480Z,2.40
2019-05-11T23:54:24.574Z,2.83
2019-05-11T23:56:53.673Z,2.97
2019-05-11T23:59:22.877Z,3.20
